Time;durP1;ratioP1;P1;durP2;ratioP2;P2;SDS_P1;SDS_P2;PMS_P1;PMS_P2;Temp;Humidity;BMP_temperature;BMP_pressure;BME280_temperature;BME280_humidity;BME280_pressure;Samples;Min_cycle;Max_cycle;Signal;HPM_P1;HPM_P2
2022/10/19 00:01:49;;;;;;;12.07;6.65;;;;;;;10.61;77.35;102743.84;4931382;28;20493;-58
2022/10/19 00:04:15;;;;;;;10.50;6.60;;;;;;;10.59;77.80;102746.56;4965609;28;20039;-57
2022/10/19 00:06:40;;;;;;;11.60;6.70;;;;;;;10.62;77.47;102742.94;4938839;28;20023;-57
2022/10/19 00:09:10;;;;;;;13.23;6.95;;;;;;;10.58;77.76;102735.97;4939373;29;20486;-57
2022/10/19 00:11:40;;;;;;;11.07;6.88;;;;;;;10.51;77.65;102732.66;4949890;28;20474;-56
2022/10/19 00:14:06;;;;;;;11.73;6.38;;;;;;;10.62;76.79;102730.50;4948829;28;20027;-57
2022/10/19 00:16:35;;;;;;;14.02;6.97;;;;;;;10.50;76.94;102733.56;4942509;28;20023;-57
2022/10/19 00:19:03;;;;;;;8.70;6.70;;;;;;;10.38;77.14;102731.28;4948737;28;20636;-57
2022/10/19 00:21:29;;;;;;;11.18;6.70;;;;;;;10.37;77.62;102734.88;4950156;28;20019;-57
2022/10/19 00:23:55;;;;;;;22.13;7.00;;;;;;;10.42;77.50;102738.25;4949174;28;20110;-57
2022/10/19 00:26:21;;;;;;;11.63;6.88;;;;;;;10.32;77.35;102726.16;4959619;28;20129;-57
2022/10/19 00:28:46;;;;;;;10.10;6.10;;;;;;;10.36;76.83;102722.50;4988547;28;20064;-57
2022/10/19 00:31:16;;;;;;;11.07;6.93;;;;;;;10.33;77.59;102725.25;4988746;28;20031;-57
2022/10/19 00:33:45;;;;;;;10.00;5.68;;;;;;;10.38;77.08;102724.19;4983051;28;20030;-57
2022/10/19 00:36:18;;;;;;;16.13;7.07;;;;;;;10.28;77.81;102719.22;4969371;28;20481;-57
2022/10/19 00:38:46;;;;;;;12.35;6.32;;;;;;;10.18;77.80;102718.59;4987893;28;20042;-57
2022/10/19 00:41:12;;;;;;;12.75;6.65;;;;;;;10.14;78.29;102722.25;4970090;28;20432;-57
2022/10/19 00:43:59;;;;;;;10.77;5.95;;;;;;;10.15;78.44;102724.88;4988730;28;20133;-56
2022/10/19 00:46:27;;;;;;;11.52;6.88;;;;;;;9.99;79.29;102723.59;4984250;28;20049;-57
2022/10/19 00:49:12;;;;;;;12.85;6.65;;;;;;;9.98;80.08;102733.38;4976495;28;20546;-57
2022/10/19 00:51:44;;;;;;;16.08;6.93;;;;;;;10.03;79.85;102727.94;4988168;28;20073;-57
2022/10/19 00:54:10;;;;;;;11.00;7.03;;;;;;;9.93;80.25;102727.31;4973676;28;20038;-57
2022/10/19 00:56:40;;;;;;;11.32;6.63;;;;;;;9.92;80.88;102722.94;4982369;28;20393;-56
2022/10/19 00:59:06;;;;;;;;;;;;;;;10.22;78.37;102736.19;4972467;28;20402;-57
2022/10/19 01:01:33;;;;;;;11.23;6.40;;;;;;;9.94;80.05;102721.09;4983994;28;19988;-56
2022/10/19 01:03:59;;;;;;;11.77;6.45;;;;;;;10.04;79.22;102728.78;4968596;28;20196;-56
2022/10/19 01:06:26;;;;;;;14.13;7.05;;;;;;;9.96;79.83;102726.34;4987546;28;20175;-56
2022/10/19 01:08:52;;;;;;;12.60;6.43;;;;;;;9.82;80.46;102724.09;4971783;28;20435;-56
2022/10/19 01:11:22;;;;;;;15.23;6.40;;;;;;;9.83;80.55;102719.69;4982338;28;20038;-57
2022/10/19 01:14:09;;;;;;;11.63;6.63;;;;;;;9.95;80.15;102725.50;4988138;28;20046;-56
2022/10/19 01:16:45;;;;;;;18.00;7.05;;;;;;;9.86;80.53;102717.78;4978943;28;20038;-56
2022/10/19 01:19:37;;;;;;;9.10;6.25;;;;;;;9.90;80.71;102719.44;4979405;28;20130;-56
2022/10/19 01:22:13;;;;;;;15.45;6.15;;;;;;;9.82;80.84;102724.09;4944221;28;20501;-56
2022/10/19 01:24:59;;;;;;;9.90;6.05;;;;;;;9.84;80.34;102730.25;4974933;28;20038;-56
2022/10/19 01:27:34;;;;;;;10.75;7.03;;;;;;;9.88;80.04;102721.28;4979110;28;20129;-56
2022/10/19 01:30:11;;;;;;;12.82;6.53;;;;;;;9.76;80.25;102713.66;4990561;28;20076;-57
2022/10/19 01:32:59;;;;;;;11.25;6.65;;;;;;;9.88;79.64;102715.97;4981288;28;20156;-56
2022/10/19 01:35:47;;;;;;;11.95;6.68;;;;;;;9.82;79.92;102716.13;4990006;28;20532;-56
2022/10/19 01:38:35;;;;;;;9.80;6.47;;;;;;;9.80;79.46;102710.00;4990691;28;20038;-57
2022/10/19 01:41:12;;;;;;;9.77;6.60;;;;;;;9.72;80.73;102712.00;4978819;28;20053;-57
2022/10/19 01:43:37;;;;;;;9.60;6.53;;;;;;;9.68;80.31;102721.00;4990346;28;20076;-57
2022/10/19 01:46:13;;;;;;;8.90;6.10;;;;;;;9.61;80.79;102720.28;4972551;28;20022;-57
2022/10/19 01:48:43;;;;;;;9.43;6.20;;;;;;;9.53;81.19;102711.69;4981867;28;20022;-57
2022/10/19 01:51:21;;;;;;;8.82;6.57;;;;;;;9.53;81.51;102719.66;4971804;28;20042;-57
2022/10/19 01:53:54;;;;;;;13.27;6.60;;;;;;;9.52;80.82;102712.59;4989838;28;20508;-56
2022/10/19 01:56:24;;;;;;;8.48;5.68;;;;;;;9.52;80.76;102709.94;4990592;28;20023;-57
2022/10/19 01:58:51;;;;;;;11.50;6.18;;;;;;;9.52;80.30;102710.78;4987790;28;20488;-56
2022/10/19 02:01:21;;;;;;;9.70;6.15;;;;;;;9.47;80.89;102704.78;4989871;28;20101;-56
2022/10/19 02:03:48;;;;;;;10.18;6.03;;;;;;;9.52;80.73;102704.63;4990349;28;20061;-56
2022/10/19 02:06:16;;;;;;;9.30;5.78;;;;;;;9.54;81.02;102705.47;4990392;28;20030;-57
2022/10/19 02:08:46;;;;;;;11.73;6.50;;;;;;;9.38;80.57;102691.72;4982877;28;20035;-56
2022/10/19 02:11:13;;;;;;;9.15;6.68;;;;;;;9.31;82.60;102688.38;4987483;28;20042;-57
2022/10/19 02:13:39;;;;;;;13.10;6.25;;;;;;;9.44;81.20;102686.25;4964419;28;20037;-58
2022/10/19 02:16:12;;;;;;;12.15;6.68;;;;;;;9.27;82.05;102681.44;4990046;28;20023;-57
2022/10/19 02:18:43;;;;;;;12.20;6.55;;;;;;;9.23;81.91;102682.41;4989972;28;20431;-56
2022/10/19 02:21:09;;;;;;;15.27;6.72;;;;;;;9.22;82.36;102671.84;4977066;28;20099;-57
2022/10/19 02:23:35;;;;;;;13.30;6.57;;;;;;;9.22;83.15;102664.75;4990191;28;20034;-57
2022/10/19 02:26:01;;;;;;;10.20;6.95;;;;;;;9.26;82.24;102663.72;4970068;28;20055;-57
2022/10/19 02:28:28;;;;;;;8.95;5.90;;;;;;;9.35;81.84;102673.22;4976821;28;20048;-57
2022/10/19 02:30:53;;;;;;;11.68;6.07;;;;;;;9.36;81.80;102669.69;4990391;28;20030;-57
2022/10/19 02:33:19;;;;;;;9.25;5.72;;;;;;;9.25;81.87;102664.66;4972534;28;20034;-56
2022/10/19 02:35:44;;;;;;;10.52;6.82;;;;;;;9.26;81.89;102666.38;4989623;28;20481;-57
2022/10/19 02:38:14;;;;;;;14.52;6.32;;;;;;;9.21;82.06;102649.75;4958647;28;20030;-57
2022/10/19 02:40:45;;;;;;;10.40;6.18;;;;;;;9.28;81.40;102659.25;4971606;28;20101;-57
2022/10/19 02:43:17;;;;;;;14.05;7.32;;;;;;;9.23;81.58;102655.00;4975394;28;20031;-57
2022/10/19 02:45:51;;;;;;;11.50;6.35;;;;;;;9.28;81.11;102645.13;4972799;28;20035;-57
2022/10/19 02:48:24;;;;;;;9.82;5.95;;;;;;;9.13;81.18;102640.25;4990059;28;20034;-57
2022/10/19 02:50:52;;;;;;;11.07;6.07;;;;;;;9.24;80.71;102644.34;4971752;28;20121;-56
2022/10/19 02:53:17;;;;;;;12.20;5.82;;;;;;;9.08;81.28;102649.19;4989582;28;20030;-56
2022/10/19 02:55:45;;;;;;;15.60;5.93;;;;;;;9.05;81.40;102656.38;4990394;28;20499;-57
2022/10/19 02:58:11;;;;;;;7.50;5.38;;;;;;;9.01;80.85;102657.38;4975510;28;20037;-57
2022/10/19 03:00:36;;;;;;;9.32;5.65;;;;;;;9.07;80.96;102651.91;4985422;28;20039;-57
2022/10/19 03:03:02;;;;;;;10.55;6.03;;;;;;;9.06;81.17;102645.72;4968000;28;20440;-56
2022/10/19 03:05:28;;;;;;;10.57;5.90;;;;;;;8.97;80.79;102648.66;4989963;28;20048;-56
2022/10/19 03:07:53;;;;;;;11.27;6.20;;;;;;;8.87;81.39;102647.13;4989675;28;20030;-56
2022/10/19 03:10:23;;;;;;;9.88;6.03;;;;;;;8.79;81.59;102638.50;4972116;28;20070;-56
2022/10/19 03:12:49;;;;;;;11.52;5.88;;;;;;;8.72;82.12;102655.50;4970474;28;20054;-57
2022/10/19 03:15:16;;;;;;;9.48;6.03;;;;;;;8.52;82.88;102642.75;4955664;28;20108;-56
2022/10/19 03:17:41;;;;;;;9.85;5.90;;;;;;;8.66;82.66;102671.59;4967835;28;20427;-57
2022/10/19 03:20:08;;;;;;;14.05;6.28;;;;;;;8.72;82.17;102672.28;4993463;28;20035;-57
2022/10/19 03:22:33;;;;;;;11.25;6.38;;;;;;;8.64;82.02;102653.91;4969211;28;20023;-56
2022/10/19 03:25:01;;;;;;;10.85;6.20;;;;;;;8.74;82.70;102662.53;4974114;28;20038;-57
2022/10/19 03:27:27;;;;;;;10.38;5.68;;;;;;;8.63;81.81;102657.50;4989094;28;20400;-57
2022/10/19 03:29:52;;;;;;;8.57;5.05;;;;;;;8.67;81.87;102655.63;4987224;28;20117;-56
2022/10/19 03:32:17;;;;;;;10.02;5.50;;;;;;;8.69;81.56;102658.25;4988316;28;20035;-57
2022/10/19 03:34:43;;;;;;;9.93;5.43;;;;;;;8.64;81.95;102653.03;4971415;28;20034;-57
2022/10/19 03:37:09;;;;;;;10.77;5.80;;;;;;;8.66;81.33;102645.06;4986353;28;20069;-57
2022/10/19 03:39:34;;;;;;;7.38;5.50;;;;;;;8.55;81.61;102654.16;4971570;28;20477;-57
2022/10/19 03:42:00;;;;;;;11.25;6.10;;;;;;;8.66;80.56;102655.69;4988685;28;20109;-57
2022/10/19 03:44:27;;;;;;;9.55;6.35;;;;;;;8.63;81.05;102651.31;4989293;28;20075;-57
2022/10/19 03:46:53;;;;;;;6.25;5.40;;;;;;;8.62;80.80;102647.81;4988947;28;20033;-57
2022/10/19 03:49:18;;;;;;;12.23;5.18;;;;;;;8.51;80.72;102651.63;4988537;28;20109;-57
2022/10/19 03:51:43;;;;;;;7.30;5.53;;;;;;;8.54;81.29;102652.41;4971671;28;20034;-57
2022/10/19 03:54:14;;;;;;;13.50;6.07;;;;;;;8.51;80.93;102660.47;4988491;28;20030;-57
2022/10/19 03:56:40;;;;;;;9.60;5.50;;;;;;;8.44;80.97;102656.19;4991277;28;20449;-57
2022/10/19 03:59:07;;;;;;;7.03;6.32;;;;;;;8.37;81.78;102657.25;5009009;28;20503;-57
2022/10/19 04:01:38;;;;;;;7.93;6.05;;;;;;;8.30;81.54;102661.81;4990374;28;20025;-57
2022/10/19 04:04:08;;;;;;;9.73;5.35;;;;;;;8.33;81.82;102663.53;4987420;28;20095;-57
2022/10/19 04:06:37;;;;;;;8.85;5.47;;;;;;;8.33;81.61;102666.19;4971634;28;20026;-57
2022/10/19 04:09:03;;;;;;;8.25;5.25;;;;;;;8.23;81.60;102656.69;4987373;28;20030;-57
2022/10/19 04:11:30;;;;;;;10.90;5.63;;;;;;;8.30;81.37;102663.63;4986830;28;20482;-56
2022/10/19 04:13:56;;;;;;;9.95;6.32;;;;;;;8.24;81.36;102659.31;4986785;28;20065;-56
2022/10/19 04:16:23;;;;;;;10.32;5.97;;;;;;;8.14;81.79;102663.09;4971121;28;20054;-56
2022/10/19 04:18:49;;;;;;;7.03;5.43;;;;;;;8.15;82.16;102651.59;4983152;28;20431;-56
2022/10/19 04:21:27;;;;;;;7.20;6.05;;;;;;;8.20;82.13;102655.00;4999594;28;20026;-56
2022/10/19 04:24:00;;;;;;;10.55;5.80;;;;;;;8.14;82.47;102660.44;4969799;28;20035;-56
2022/10/19 04:26:27;;;;;;;12.00;6.40;;;;;;;8.13;82.42;102653.41;4974717;28;20512;-56
2022/10/19 04:28:52;;;;;;;11.35;6.30;;;;;;;8.06;82.83;102660.63;4958120;28;20035;-56
2022/10/19 04:31:18;;;;;;;9.25;6.35;;;;;;;8.06;83.21;102651.78;4983311;28;20488;-57
2022/10/19 04:33:44;;;;;;;12.10;6.18;;;;;;;8.11;83.34;102642.81;4988081;28;20420;-56
2022/10/19 04:36:11;;;;;;;18.17;7.70;;;;;;;8.19;84.29;102638.22;4980895;28;20023;-56
2022/10/19 04:38:37;;;;;;;9.50;6.70;;;;;;;8.09;83.96;102642.03;4989217;28;20030;-56
2022/10/19 04:41:06;;;;;;;12.88;6.90;;;;;;;8.10;84.48;102646.41;4987657;28;20014;-56
2022/10/19 04:43:32;;;;;;;10.32;6.68;;;;;;;8.21;84.81;102632.91;4988312;28;20034;-56
2022/10/19 04:46:04;;;;;;;11.00;6.22;;;;;;;8.18;84.86;102639.16;4973156;28;20545;-58
2022/10/19 04:48:32;;;;;;;12.25;7.20;;;;;;;8.19;85.51;102650.59;4969491;28;20065;-57
2022/10/19 04:50:58;;;;;;;13.52;6.85;;;;;;;8.12;85.57;102631.34;4985036;28;20088;-56
2022/10/19 04:53:23;;;;;;;12.70;6.72;;;;;;;8.15;85.84;102647.16;4973344;28;20038;-56
2022/10/19 04:55:52;;;;;;;11.38;6.60;;;;;;;8.15;85.31;102647.16;4988976;28;20038;-56
2022/10/19 04:58:17;;;;;;;15.68;7.35;;;;;;;8.11;85.77;102657.88;4974724;28;20034;-57
2022/10/19 05:00:42;;;;;;;12.82;6.95;;;;;;;8.15;85.19;102641.00;4991807;28;20491;-56
2022/10/19 05:03:08;;;;;;;11.73;7.00;;;;;;;8.12;84.55;102639.28;4991693;28;20030;-56
2022/10/19 05:05:34;;;;;;;12.98;7.45;;;;;;;8.18;84.67;102646.22;4990797;28;20034;-57
2022/10/19 05:08:00;;;;;;;14.52;7.60;;;;;;;8.19;86.07;102643.53;4974093;28;20034;-57
2022/10/19 05:10:26;;;;;;;13.32;7.28;;;;;;;8.13;85.54;102650.75;4987088;28;20477;-57
2022/10/19 05:12:52;;;;;;;9.77;7.15;;;;;;;8.11;85.25;102641.97;4990191;28;20027;-57
2022/10/19 05:15:17;;;;;;;12.50;6.30;;;;;;;8.15;84.98;102643.66;4990852;28;20137;-57
2022/10/19 05:17:45;;;;;;;10.93;6.13;;;;;;;8.06;85.08;102643.84;4990595;28;20042;-57
2022/10/19 05:20:10;;;;;;;10.52;6.78;;;;;;;8.06;84.84;102642.09;4974137;28;20113;-57
2022/10/19 05:22:37;;;;;;;10.93;7.03;;;;;;;8.00;84.90;102636.03;4983072;28;20164;-57
2022/10/19 05:25:03;;;;;;;11.82;7.47;;;;;;;7.94;85.68;102643.25;4984610;28;20038;-57
2022/10/19 05:27:28;;;;;;;14.05;7.60;;;;;;;7.91;85.41;102638.03;4944755;28;20207;-57
2022/10/19 05:29:54;;;;;;;8.18;7.20;;;;;;;7.97;85.40;102627.28;4986331;28;20121;-56
2022/10/19 05:32:19;;;;;;;14.48;7.82;;;;;;;8.04;86.35;102624.47;4988025;28;20107;-57
2022/10/19 05:34:45;;;;;;;12.10;7.60;;;;;;;7.99;85.55;102613.97;4976255;28;20164;-56
2022/10/19 05:37:10;;;;;;;13.88;7.20;;;;;;;8.06;85.80;102617.34;4964145;28;20050;-56
2022/10/19 05:39:36;;;;;;;15.07;7.28;;;;;;;8.00;85.64;102623.69;4982515;28;20374;-56
2022/10/19 05:42:01;;;;;;;13.32;7.82;;;;;;;7.93;86.47;102619.44;4990804;28;20038;-56
2022/10/19 05:44:29;;;;;;;11.75;7.72;;;;;;;8.00;86.31;102621.03;4969220;28;20031;-56
2022/10/19 05:46:54;;;;;;;10.43;7.18;;;;;;;8.00;86.71;102623.69;4972341;28;20039;-56
2022/10/19 05:49:23;;;;;;;15.45;8.60;;;;;;;7.90;86.54;102624.78;4985736;28;20015;-56
2022/10/19 05:51:49;;;;;;;10.75;7.35;;;;;;;7.96;86.01;102622.88;4990686;28;20117;-56
2022/10/19 05:54:15;;;;;;;14.95;7.40;;;;;;;7.88;85.87;102626.59;4990022;28;20607;-56
2022/10/19 05:56:41;;;;;;;12.05;8.00;;;;;;;7.85;85.38;102622.28;4988693;28;20031;-56
2022/10/19 05:59:09;;;;;;;13.65;7.68;;;;;;;7.89;85.96;102626.59;4972586;28;20405;-56
2022/10/19 06:01:35;;;;;;;15.13;8.20;;;;;;;7.85;85.75;102606.38;4977768;28;20024;-56
2022/10/19 06:04:02;;;;;;;11.50;7.70;;;;;;;7.86;85.51;102612.53;4983374;28;20038;-56
2022/10/19 06:06:28;;;;;;;11.05;7.85;;;;;;;7.83;86.35;102608.19;4972850;28;20037;-56
2022/10/19 06:08:54;;;;;;;13.10;7.90;;;;;;;7.83;85.95;102615.25;4971664;28;20026;-56
2022/10/19 06:11:22;;;;;;;11.60;7.93;;;;;;;7.77;85.90;102612.75;4989141;28;20044;-56
2022/10/19 06:13:50;;;;;;;14.77;8.48;;;;;;;7.82;86.53;102611.72;4990439;28;20419;-56
2022/10/19 06:16:17;;;;;;;11.63;7.63;;;;;;;7.78;86.63;102609.19;4989510;28;20450;-57
2022/10/19 06:18:43;;;;;;;13.07;7.82;;;;;;;7.80;86.21;102607.38;4989153;28;20053;-57
2022/10/19 06:21:18;;;;;;;16.05;9.15;;;;;;;7.78;86.93;102609.19;4988574;28;20065;-58
2022/10/19 06:23:48;;;;;;;12.07;8.63;;;;;;;7.74;86.83;102611.03;4989620;28;20027;-57
2022/10/19 06:26:14;;;;;;;13.05;8.60;;;;;;;7.78;86.12;102610.06;4988798;28;20026;-57
2022/10/19 06:28:42;;;;;;;17.45;8.23;;;;;;;7.72;86.87;102612.84;4954478;28;20030;-57
2022/10/19 06:31:08;;;;;;;12.38;8.38;;;;;;;7.64;86.89;102614.78;4990122;28;20035;-57
2022/10/19 06:33:34;;;;;;;15.15;8.73;;;;;;;7.75;86.89;102612.78;4972728;28;20054;-57
2022/10/19 06:36:12;;;;;;;13.05;9.45;;;;;;;7.74;87.19;102614.56;4971005;28;20117;-57
2022/10/19 06:38:41;;;;;;;16.60;9.88;;;;;;;7.78;87.60;102617.13;4989462;28;20144;-57
2022/10/19 06:41:07;;;;;;;15.88;9.25;;;;;;;7.75;87.83;102612.78;4972664;28;20397;-57
2022/10/19 06:43:33;;;;;;;17.38;9.63;;;;;;;7.73;87.66;102612.81;4990021;28;20514;-57
2022/10/19 06:46:04;;;;;;;18.35;9.43;;;;;;;7.57;88.43;102603.47;4990234;28;20038;-57
2022/10/19 06:48:30;;;;;;;15.68;9.07;;;;;;;7.70;88.71;102612.88;4971949;28;20111;-57
2022/10/19 06:50:58;;;;;;;15.35;9.32;;;;;;;7.72;87.82;102615.50;4986782;28;20216;-57
2022/10/19 06:53:23;;;;;;;13.70;9.40;;;;;;;7.72;87.73;102615.50;4989195;28;20045;-56
2022/10/19 06:55:49;;;;;;;12.88;9.30;;;;;;;7.84;88.53;102617.84;4972481;28;20421;-56
2022/10/19 06:58:14;;;;;;;13.93;9.35;;;;;;;7.87;88.50;102615.13;4972349;28;20102;-56
2022/10/19 07:00:40;;;;;;;17.27;9.80;;;;;;;7.94;88.11;102619.41;4954867;28;20100;-57
2022/10/19 07:03:07;;;;;;;14.80;9.35;;;;;;;7.88;88.12;102621.31;4968977;28;20053;-57
2022/10/19 07:05:33;;;;;;;10.85;9.10;;;;;;;7.85;88.76;102619.63;4988903;28;20062;-57
2022/10/19 07:08:00;;;;;;;14.25;9.63;;;;;;;7.89;89.45;102607.16;4970555;28;20099;-56
2022/10/19 07:10:26;;;;;;;16.13;9.95;;;;;;;8.01;89.99;102606.88;4948516;28;20440;-57
2022/10/19 07:12:51;;;;;;;18.33;9.23;;;;;;;8.06;90.18;102618.25;4952623;28;20118;-57
2022/10/19 07:15:17;;;;;;;15.15;9.27;;;;;;;8.10;90.94;102614.59;4970331;28;20046;-57
2022/10/19 07:17:43;;;;;;;13.50;9.32;;;;;;;8.08;91.15;102610.25;4975907;28;20124;-57
2022/10/19 07:20:09;;;;;;;15.18;9.50;;;;;;;8.20;91.59;102616.09;4976230;28;20108;-57
2022/10/19 07:22:35;;;;;;;15.25;9.77;;;;;;;8.33;91.24;102613.16;4980002;28;20039;-57
2022/10/19 07:25:00;;;;;;;15.10;9.85;;;;;;;8.41;91.22;102612.09;4969291;28;20035;-57
2022/10/19 07:27:25;;;;;;;14.65;9.85;;;;;;;8.43;91.64;102616.47;4983204;28;20058;-57
2022/10/19 07:29:51;;;;;;;13.02;9.07;;;;;;;8.46;91.59;102614.63;4988848;28;20156;-57
2022/10/19 07:32:19;;;;;;;16.70;9.52;;;;;;;8.54;91.90;102625.91;4986697;28;20034;-57
2022/10/19 07:34:44;;;;;;;14.30;9.18;;;;;;;8.45;92.00;102604.94;4969422;28;20120;-57
2022/10/19 07:37:09;;;;;;;15.15;9.23;;;;;;;8.62;91.70;102613.31;4952646;28;20655;-57
2022/10/19 07:39:37;;;;;;;11.63;8.93;;;;;;;8.64;91.70;102606.16;4982076;28;20041;-58
2022/10/19 07:42:03;;;;;;;13.13;9.35;;;;;;;8.68;92.53;102603.44;4988064;28;20034;-58
2022/10/19 07:44:29;;;;;;;12.45;8.75;;;;;;;8.67;92.63;102605.22;4984411;28;20037;-57
2022/10/19 07:46:54;;;;;;;15.40;9.23;;;;;;;8.63;93.03;102604.44;4980367;28;20045;-57
2022/10/19 07:49:20;;;;;;;14.52;8.80;;;;;;;8.72;92.88;102600.66;4971200;28;20042;-57
2022/10/19 07:51:46;;;;;;;18.27;9.35;;;;;;;8.76;92.57;102598.78;4969974;28;20034;-57
2022/10/19 07:54:12;;;;;;;15.02;9.18;;;;;;;8.75;92.70;102587.31;4988885;28;20427;-58
2022/10/19 07:56:37;;;;;;;17.90;8.90;;;;;;;8.89;92.83;102602.00;4985520;28;20031;-57
2022/10/19 07:59:06;;;;;;;16.85;9.35;;;;;;;8.95;92.91;102597.38;4979705;28;20358;-58
2022/10/19 08:01:35;;;;;;;15.45;8.43;;;;;;;9.01;92.83;102599.00;4970752;28;20030;-57
2022/10/19 08:04:01;;;;;;;16.48;9.52;;;;;;;9.09;93.39;102594.34;4967124;28;20066;-56
2022/10/19 08:06:30;;;;;;;11.70;8.98;;;;;;;9.14;93.43;102588.91;4963815;28;20026;-57
2022/10/19 08:08:56;;;;;;;15.23;9.00;;;;;;;9.20;93.34;102586.91;5036171;28;20031;-58
2022/10/19 08:11:27;;;;;;;13.60;8.75;;;;;;;9.26;93.38;102593.84;4987650;28;20062;-58
2022/10/19 08:13:53;;;;;;;15.13;8.50;;;;;;;9.30;93.06;102592.84;4985955;28;20045;-57
2022/10/19 08:16:31;;;;;;;16.85;9.35;;;;;;;9.38;92.67;102593.47;4987970;28;20037;-57
2022/10/19 08:19:06;;;;;;;13.95;8.90;;;;;;;9.40;92.49;102585.47;4970606;28;20054;-57
2022/10/19 08:21:32;;;;;;;13.82;9.45;;;;;;;9.47;92.33;102581.69;4969033;28;20059;-58
2022/10/19 08:23:58;;;;;;;16.65;9.27;;;;;;;9.51;92.27;102578.91;4989715;28;20038;-57
2022/10/19 08:26:24;;;;;;;17.45;9.25;;;;;;;9.56;92.54;102573.47;4972469;28;20041;-57
2022/10/19 08:28:50;;;;;;;16.65;8.95;;;;;;;9.64;92.40;102565.25;4991402;28;20037;-58
2022/10/19 08:31:20;;;;;;;17.30;8.20;;;;;;;9.69;92.27;102572.16;4991939;28;20031;-57
2022/10/19 08:33:47;;;;;;;;;;;;;;;9.73;91.91;102554.31;4991695;28;20046;-57
2022/10/19 08:36:13;;;;;;;18.00;9.07;;;;;;;9.80;92.88;102555.03;4991476;28;19909;-57
2022/10/19 08:38:39;;;;;;;17.50;8.48;;;;;;;9.84;92.00;102556.66;4990774;28;20499;-57
2022/10/19 08:41:21;;;;;;;19.30;8.60;;;;;;;9.92;91.99;102551.97;4991201;28;20750;-57
2022/10/19 08:44:27;;;;;;;18.30;9.60;;;;;;;9.98;91.86;102549.09;4990383;28;20027;-57
2022/10/19 08:47:30;;;;;;;19.63;8.68;;;;;;;10.12;92.57;102546.84;4989817;28;20562;-57
2022/10/19 08:49:57;;;;;;;19.67;9.13;;;;;;;10.23;92.13;102542.03;4983340;28;20489;-57
2022/10/19 08:52:29;;;;;;;14.20;8.40;;;;;;;10.34;90.67;102549.66;4988816;28;20481;-57
2022/10/19 08:55:01;;;;;;;15.63;7.85;;;;;;;10.46;90.23;102540.38;4990917;28;20105;-57
2022/10/19 08:57:45;;;;;;;14.18;8.02;;;;;;;10.57;89.32;102546.19;4979511;28;20023;-57
2022/10/19 09:00:16;;;;;;;18.55;7.90;;;;;;;10.73;89.30;102545.63;4976927;28;20026;-57
2022/10/19 09:03:04;;;;;;;12.50;7.05;;;;;;;10.83;88.42;102547.91;4965439;28;20027;-57
2022/10/19 09:05:33;;;;;;;14.25;7.30;;;;;;;10.94;86.99;102538.66;4983378;28;20469;-57
2022/10/19 09:08:01;;;;;;;17.92;7.15;;;;;;;11.04;86.22;102534.72;4992130;28;20030;-57
2022/10/19 09:10:34;;;;;;;15.63;7.45;;;;;;;11.16;85.96;102536.06;4987491;28;20060;-58
2022/10/19 09:13:26;;;;;;;17.58;7.03;;;;;;;11.27;85.77;102532.06;4972291;28;20512;-57
2022/10/19 09:15:54;;;;;;;15.23;7.50;;;;;;;11.35;85.02;102532.63;4976932;28;20047;-57
2022/10/19 09:18:26;;;;;;;12.25;7.10;;;;;;;11.43;83.99;102545.63;4990143;28;20042;-57
2022/10/19 09:21:00;;;;;;;14.27;7.00;;;;;;;11.46;83.05;102553.50;4992657;28;20022;-57
2022/10/19 09:23:30;;;;;;;19.58;7.20;;;;;;;11.50;82.70;102560.47;4990207;28;20066;-57
2022/10/19 09:25:58;;;;;;;19.45;7.38;;;;;;;11.55;82.83;102562.94;4983470;28;20026;-58
2022/10/19 09:28:43;;;;;;;17.80;7.13;;;;;;;11.66;82.74;102567.84;4991258;28;20050;-57
2022/10/19 09:31:19;;;;;;;20.15;7.25;;;;;;;11.75;82.61;102560.34;4986509;28;20034;-57
2022/10/19 09:33:51;;;;;;;12.57;6.60;;;;;;;11.80;80.74;102558.34;4976288;28;20026;-57
2022/10/19 09:36:16;;;;;;;14.38;6.88;;;;;;;11.92;81.12;102553.50;4991104;28;20420;-58
2022/10/19 09:38:44;;;;;;;17.40;6.40;;;;;;;12.02;80.89;102546.84;4991116;28;20034;-57
2022/10/19 09:41:17;;;;;;;12.88;6.07;;;;;;;12.10;81.50;102542.06;4991037;28;20434;-57
2022/10/19 09:43:49;;;;;;;13.90;5.85;;;;;;;12.31;81.37;102539.41;4990236;28;20042;-56
2022/10/19 09:46:32;;;;;;;11.80;5.85;;;;;;;12.43;79.13;102541.53;4972191;28;20022;-57
2022/10/19 09:49:00;;;;;;;19.75;6.38;;;;;;;12.55;78.39;102530.31;4989969;28;20454;-57
2022/10/19 09:51:38;;;;;;;10.80;5.55;;;;;;;12.69;78.57;102521.69;4989767;28;20034;-57
2022/10/19 09:54:04;;;;;;;12.43;5.25;;;;;;;12.79;76.91;102519.47;4986587;28;20149;-57
2022/10/19 09:56:36;;;;;;;16.83;5.50;;;;;;;12.91;75.94;102514.44;4990634;28;20114;-57
2022/10/19 09:59:02;;;;;;;16.50;4.78;;;;;;;13.03;74.26;102520.13;4990454;28;20388;-57
2022/10/19 10:01:37;;;;;;;15.57;5.50;;;;;;;13.23;74.76;102514.72;4990455;28;20037;-57
2022/10/19 10:04:08;;;;;;;15.32;5.20;;;;;;;13.28;74.54;102495.84;4972381;28;20491;-56
2022/10/19 10:06:37;;;;;;;9.48;4.63;;;;;;;13.45;73.63;102501.25;4990070;28;20041;-56
2022/10/19 10:09:02;;;;;;;8.38;4.55;;;;;;;13.68;72.29;102510.81;4990139;28;20030;-56
2022/10/19 10:11:34;;;;;;;15.40;4.50;;;;;;;13.74;71.35;102526.56;5005610;28;20193;-56
2022/10/19 10:14:13;;;;;;;17.58;5.03;;;;;;;13.78;70.23;102513.91;4987513;28;20041;-57
2022/10/19 10:16:38;;;;;;;15.25;4.60;;;;;;;13.87;70.50;102513.44;4987349;28;20033;-57
2022/10/19 10:19:11;;;;;;;10.32;4.43;;;;;;;13.85;70.24;102510.84;4988768;28;20413;-57
2022/10/19 10:21:46;;;;;;;16.17;5.13;;;;;;;14.17;69.59;102520.84;4991031;28;20034;-56
2022/10/19 10:24:11;;;;;;;13.75;3.97;;;;;;;14.41;68.10;102522.25;4988436;28;20019;-56
2022/10/19 10:26:39;;;;;;;8.05;3.63;;;;;;;14.60;66.43;102513.28;4989902;28;20042;-57
2022/10/19 10:29:25;;;;;;;12.43;4.13;;;;;;;14.80;66.03;102514.91;4987825;28;20038;-57
2022/10/19 10:31:59;;;;;;;11.13;3.83;;;;;;;15.07;64.23;102502.66;4980293;28;20546;-57
2022/10/19 10:34:30;;;;;;;10.00;3.92;;;;;;;15.44;63.49;102516.66;4989262;28;20135;-57
2022/10/19 10:36:56;;;;;;;9.63;3.70;;;;;;;15.71;62.36;102500.00;4979687;28;20026;-57
2022/10/19 10:39:25;;;;;;;7.88;3.58;;;;;;;16.12;61.10;102498.41;4973142;28;20030;-57
2022/10/19 10:41:56;;;;;;;10.52;3.90;;;;;;;16.55;60.36;102494.91;4990745;28;20026;-57
2022/10/19 10:44:28;;;;;;;13.77;4.38;;;;;;;16.74;58.30;102483.88;4987914;28;20026;-57
2022/10/19 10:46:58;;;;;;;10.90;3.55;;;;;;;17.06;58.66;102494.41;4985009;28;20061;-57
2022/10/19 10:49:28;;;;;;;11.30;4.43;;;;;;;17.28;55.52;102494.78;4971911;28;20037;-57
2022/10/19 10:51:56;;;;;;;9.52;3.65;;;;;;;17.41;55.15;102493.03;4990407;28;20026;-57
2022/10/19 10:54:26;;;;;;;8.02;3.30;;;;;;;17.67;54.77;102491.28;4972846;28;20106;-57
2022/10/19 10:57:08;;;;;;;13.43;3.70;;;;;;;17.91;54.27;102490.63;4972048;28;20033;-57
2022/10/19 10:59:46;;;;;;;10.63;3.70;;;;;;;18.24;52.98;102479.38;4970380;28;20073;-57
2022/10/19 11:02:25;;;;;;;10.23;3.85;;;;;;;18.25;52.25;102475.72;4986985;28;20022;-57
2022/10/19 11:04:55;;;;;;;12.73;4.18;;;;;;;18.66;52.29;102477.31;4970779;28;20449;-57
2022/10/19 11:07:31;;;;;;;10.27;3.95;;;;;;;18.93;52.19;102465.56;5111467;27;20567;-56
2022/10/19 11:10:01;;;;;;;9.70;3.28;;;;;;;19.20;51.15;102470.75;5068767;28;20029;-56
2022/10/19 11:12:37;;;;;;;9.30;3.90;;;;;;;19.52;50.23;102465.66;5067551;28;20029;-56
2022/10/19 11:15:12;;;;;;;7.93;4.05;;;;;;;19.57;49.12;102466.19;5066072;28;20035;-56
2022/10/19 11:17:47;;;;;;;11.93;4.00;;;;;;;19.85;48.85;102458.69;5066026;28;20056;-57
2022/10/19 11:20:15;;;;;;;11.98;4.07;;;;;;;20.11;46.72;102449.44;5064686;28;20036;-56
2022/10/19 11:22:54;;;;;;;12.23;4.05;;;;;;;20.24;47.41;102438.56;5067511;28;20099;-56
2022/10/19 11:25:20;;;;;;;16.08;4.10;;;;;;;20.32;45.99;102441.47;5067527;28;20025;-57
2022/10/19 11:28:07;;;;;;;12.05;4.75;;;;;;;20.92;46.47;102433.16;5066700;28;20039;-56
2022/10/19 11:30:47;;;;;;;9.75;3.17;;;;;;;20.97;45.24;102430.91;5068418;28;20048;-56
2022/10/19 11:33:33;;;;;;;16.27;4.18;;;;;;;21.05;45.41;102432.00;5068682;28;20387;-56
2022/10/19 11:36:16;;;;;;;7.50;3.80;;;;;;;21.06;43.85;102416.63;5067944;28;20426;-57